createdAt,value
2023-01-13T00:00:06.888Z,20.10
2023-01-13T00:01:16.960Z,20.10
2023-01-13T00:02:19.486Z,20.00
2023-01-13T00:03:22.407Z,20.00
2023-01-13T00:04:24.744Z,20.00
2023-01-13T00:05:28.163Z,20.10
2023-01-13T00:06:30.445Z,20.10
2023-01-13T00:07:32.798Z,20.10
2023-01-13T00:08:35.715Z,20.10
2023-01-13T00:09:38.043Z,20.10
2023-01-13T00:10:40.297Z,20.10
2023-01-13T00:11:42.696Z,20.10
2023-01-13T00:12:45.053Z,20.10
2023-01-13T00:13:47.565Z,20.10
2023-01-13T00:14:49.849Z,20.10
2023-01-13T00:16:18.989Z,20.10
2023-01-13T00:17:22.702Z,20.10
2023-01-13T00:18:25.339Z,20.10
2023-01-13T00:19:27.783Z,20.20
2023-01-13T00:20:30.121Z,20.10
2023-01-13T00:21:32.383Z,20.10
2023-01-13T00:22:35.376Z,20.10
2023-01-13T00:23:38.181Z,20.10
2023-01-13T00:24:40.505Z,20.10
2023-01-13T00:25:42.826Z,20.20
2023-01-13T00:26:45.103Z,20.10
2023-01-13T00:27:47.364Z,20.10
2023-01-13T00:28:50.567Z,20.10
2023-01-13T00:29:53.023Z,20.10
2023-01-13T00:30:58.579Z,20.10
2023-01-13T00:32:00.850Z,20.10
2023-01-13T00:33:03.153Z,20.10
2023-01-13T00:34:05.445Z,20.10
2023-01-13T00:35:08.211Z,20.10
2023-01-13T00:36:13.819Z,20.00
2023-01-13T00:37:16.965Z,20.00
2023-01-13T00:38:19.237Z,20.10
2023-01-13T00:39:21.596Z,20.00
2023-01-13T00:40:23.859Z,20.00
2023-01-13T00:41:27.303Z,20.10
2023-01-13T00:42:48.455Z,20.20
2023-01-13T00:43:50.840Z,20.10
2023-01-13T00:44:53.254Z,20.10
2023-01-13T00:45:55.647Z,20.10
2023-01-13T00:46:57.861Z,20.10
2023-01-13T00:48:00.114Z,20.00
2023-01-13T00:49:02.477Z,20.00
2023-01-13T00:50:05.340Z,20.00
2023-01-13T00:51:19.974Z,20.00
2023-01-13T00:52:22.290Z,20.00
2023-01-13T00:53:25.797Z,20.00
2023-01-13T00:54:28.098Z,20.00
2023-01-13T00:55:32.403Z,20.00
2023-01-13T00:56:40.259Z,20.00
2023-01-13T00:57:43.217Z,20.00
2023-01-13T00:58:46.221Z,20.00
2023-01-13T00:59:49.654Z,20.00
2023-01-13T01:00:52.226Z,20.00
2023-01-13T01:01:54.966Z,20.00
2023-01-13T01:02:57.341Z,20.00
2023-01-13T01:03:59.666Z,20.00
2023-01-13T01:05:01.976Z,20.00
2023-01-13T01:06:11.046Z,20.00
2023-01-13T01:07:13.299Z,20.00
2023-01-13T01:08:15.632Z,20.00
2023-01-13T01:09:18.318Z,20.00
2023-01-13T01:10:20.574Z,20.00
2023-01-13T01:11:28.122Z,20.00
2023-01-13T01:12:30.392Z,20.00
2023-01-13T01:13:33.045Z,20.00
2023-01-13T01:14:35.325Z,19.90
2023-01-13T01:15:41.121Z,19.90
2023-01-13T01:16:43.368Z,19.90
2023-01-13T01:17:45.743Z,19.90
2023-01-13T01:18:50.209Z,19.90
2023-01-13T01:19:52.504Z,19.90
2023-01-13T01:20:54.776Z,19.90
2023-01-13T01:21:57.059Z,19.90
2023-01-13T01:22:59.591Z,19.90
2023-01-13T01:24:03.645Z,19.90
2023-01-13T01:25:06.399Z,19.90
2023-01-13T01:26:14.839Z,19.90
2023-01-13T01:27:17.132Z,19.90
2023-01-13T01:28:20.534Z,19.90
2023-01-13T01:29:22.903Z,19.90
2023-01-13T01:30:25.198Z,19.90
2023-01-13T01:31:31.496Z,19.90
2023-01-13T01:32:34.791Z,19.90
2023-01-13T01:33:37.190Z,19.90
2023-01-13T01:34:39.618Z,19.90
2023-01-13T01:35:42.749Z,19.90
2023-01-13T01:36:44.998Z,19.90
2023-01-13T01:37:47.241Z,19.90
2023-01-13T01:38:50.199Z,19.90
2023-01-13T01:39:52.476Z,19.90
2023-01-13T01:40:54.933Z,19.90
2023-01-13T01:42:15.847Z,19.90
2023-01-13T01:43:39.262Z,19.90
2023-01-13T01:44:59.486Z,20.00
2023-01-13T01:46:02.128Z,20.00
2023-01-13T01:47:04.702Z,20.00
2023-01-13T01:48:08.357Z,19.90
2023-01-13T01:49:46.196Z,19.90
2023-01-13T01:50:48.675Z,19.90
2023-01-13T01:51:55.112Z,19.90
2023-01-13T01:53:02.575Z,19.90
2023-01-13T01:54:09.524Z,20.00
2023-01-13T01:55:20.282Z,20.00
2023-01-13T01:56:22.743Z,19.90
2023-01-13T01:57:50.132Z,19.90
2023-01-13T01:58:53.418Z,19.90
2023-01-13T01:59:57.492Z,19.90
2023-01-13T02:01:00.300Z,19.90
2023-01-13T02:02:03.110Z,19.90
2023-01-13T02:03:07.224Z,19.90
2023-01-13T02:04:22.530Z,19.90
2023-01-13T02:05:24.952Z,19.80
2023-01-13T02:06:29.658Z,19.80
2023-01-13T02:07:34.335Z,19.90
2023-01-13T02:08:40.098Z,19.80
2023-01-13T02:09:42.656Z,19.80
2023-01-13T02:10:50.606Z,19.80
2023-01-13T02:12:11.605Z,19.80
2023-01-13T02:13:14.222Z,19.80
2023-01-13T02:14:16.745Z,19.80
2023-01-13T02:15:30.213Z,19.70
2023-01-13T02:16:33.237Z,19.80
2023-01-13T02:17:53.251Z,19.80
2023-01-13T02:19:21.245Z,19.80
2023-01-13T02:20:29.698Z,19.80
2023-01-13T02:21:59.495Z,19.80
2023-01-13T02:23:51.376Z,19.80
2023-01-13T02:25:22.015Z,19.80
2023-01-13T02:27:00.676Z,19.80
2023-01-13T02:28:38.341Z,19.80
2023-01-13T02:30:18.706Z,19.80
2023-01-13T02:31:39.962Z,19.70
2023-01-13T02:33:01.198Z,19.70
2023-01-13T02:34:27.471Z,19.70
2023-01-13T02:35:35.627Z,19.80
2023-01-13T02:37:02.252Z,19.80
2023-01-13T02:38:06.048Z,19.80
2023-01-13T02:39:22.676Z,19.70
2023-01-13T02:40:36.866Z,19.70
2023-01-13T02:42:16.329Z,19.70
2023-01-13T02:43:58.160Z,19.70
2023-01-13T02:45:18.613Z,19.70
2023-01-13T02:46:29.802Z,19.70
2023-01-13T02:47:36.669Z,19.70
2023-01-13T02:48:41.954Z,19.70
2023-01-13T02:49:50.901Z,19.70
2023-01-13T02:51:01.236Z,19.70
2023-01-13T02:52:11.575Z,19.70
2023-01-13T02:53:22.963Z,19.70
2023-01-13T02:54:28.380Z,19.60
2023-01-13T02:55:41.476Z,19.70
2023-01-13T02:56:48.275Z,19.60
2023-01-13T02:57:53.002Z,19.70
2023-01-13T02:58:57.814Z,19.70
2023-01-13T03:00:01.118Z,19.80
2023-01-13T03:01:03.577Z,19.80
2023-01-13T03:02:10.532Z,19.70
2023-01-13T03:03:13.729Z,19.40
2023-01-13T03:05:01.994Z,19.30
2023-01-13T03:06:39.008Z,18.90
2023-01-13T03:08:00.752Z,19.10
2023-01-13T03:09:28.027Z,19.20
2023-01-13T03:10:56.917Z,19.20
2023-01-13T03:12:14.807Z,19.10
2023-01-13T03:13:44.618Z,19.00
2023-01-13T03:14:56.880Z,19.00
2023-01-13T03:16:17.653Z,18.90
2023-01-13T03:17:33.045Z,18.80
2023-01-13T03:18:44.134Z,18.80
2023-01-13T03:20:17.992Z,18.80
2023-01-13T03:21:30.491Z,18.70
2023-01-13T03:22:44.541Z,18.60
2023-01-13T03:23:52.158Z,18.50
2023-01-13T03:25:15.179Z,18.50
2023-01-13T03:28:01.157Z,18.50
2023-01-13T03:29:23.443Z,18.40
2023-01-13T03:30:41.080Z,18.40
2023-01-13T03:32:11.178Z,18.30
2023-01-13T03:33:23.778Z,18.20
2023-01-13T03:34:34.320Z,18.20
2023-01-13T03:35:40.375Z,18.20
2023-01-13T03:36:47.898Z,18.20
2023-01-13T03:37:57.098Z,18.20
2023-01-13T03:39:04.636Z,18.20
2023-01-13T03:40:23.372Z,18.30
2023-01-13T03:41:40.757Z,18.60
2023-01-13T03:43:06.034Z,18.60
2023-01-13T03:44:23.060Z,18.50
2023-01-13T03:45:26.407Z,18.50
2023-01-13T03:46:45.604Z,18.40
2023-01-13T03:47:53.963Z,18.40
2023-01-13T03:48:59.657Z,18.50
2023-01-13T03:50:01.915Z,18.40
2023-01-13T03:51:07.454Z,18.40
2023-01-13T03:52:13.497Z,18.40
2023-01-13T03:53:33.519Z,18.40
2023-01-13T03:54:44.324Z,18.40
2023-01-13T03:55:53.991Z,18.40
2023-01-13T03:57:03.823Z,18.40
2023-01-13T03:58:35.136Z,18.30
2023-01-13T03:59:42.492Z,18.40
2023-01-13T04:00:53.617Z,18.70
2023-01-13T04:02:07.752Z,18.90
2023-01-13T04:03:15.128Z,19.10
2023-01-13T04:04:23.662Z,19.30
2023-01-13T04:05:27.506Z,19.40
2023-01-13T04:06:36.142Z,19.60
2023-01-13T04:07:56.386Z,19.70
2023-01-13T04:09:36.096Z,19.80
2023-01-13T04:10:53.089Z,20.00
2023-01-13T04:12:10.827Z,20.00
2023-01-13T04:13:17.961Z,20.10
2023-01-13T04:14:21.611Z,20.20
2023-01-13T04:15:28.000Z,20.20
2023-01-13T04:16:32.332Z,20.30
2023-01-13T04:17:34.727Z,20.30
2023-01-13T04:18:39.092Z,20.30
2023-01-13T04:19:41.400Z,20.40
2023-01-13T04:20:45.749Z,20.40
2023-01-13T04:21:48.044Z,20.40
2023-01-13T04:22:50.321Z,20.60
2023-01-13T04:23:53.823Z,20.60
2023-01-13T04:24:56.142Z,20.60
2023-01-13T04:25:58.972Z,20.40
2023-01-13T04:27:01.374Z,20.30
2023-01-13T04:28:03.906Z,20.20
2023-01-13T04:29:06.221Z,20.10
2023-01-13T04:30:09.249Z,20.10
2023-01-13T04:31:12.200Z,20.20
2023-01-13T04:32:14.504Z,20.40
2023-01-13T04:33:18.345Z,20.40
2023-01-13T04:34:20.706Z,20.40
2023-01-13T04:35:23.108Z,20.50
2023-01-13T04:36:27.531Z,20.50
2023-01-13T04:37:29.833Z,20.50
2023-01-13T04:38:32.128Z,20.50
2023-01-13T04:39:34.431Z,20.60
2023-01-13T04:40:36.826Z,20.60
2023-01-13T04:41:57.785Z,20.60
2023-01-13T04:43:00.092Z,20.60
2023-01-13T04:44:02.421Z,20.60
2023-01-13T04:45:05.210Z,20.70
2023-01-13T04:46:07.722Z,20.70
2023-01-13T04:47:10.043Z,20.70
2023-01-13T04:48:12.573Z,20.80
2023-01-13T04:49:14.911Z,20.80
2023-01-13T04:50:19.752Z,20.80
2023-01-13T04:51:22.004Z,20.90
2023-01-13T04:52:24.283Z,20.90
2023-01-13T04:53:26.573Z,21.00
2023-01-13T04:54:29.029Z,21.00
2023-01-13T04:55:32.110Z,21.10
2023-01-13T04:56:34.537Z,21.20
2023-01-13T04:57:37.668Z,21.20
2023-01-13T04:58:40.020Z,21.10
2023-01-13T04:59:42.383Z,21.10
2023-01-13T05:00:44.712Z,21.00
2023-01-13T05:01:47.275Z,21.00
2023-01-13T05:02:51.244Z,21.00
2023-01-13T05:03:53.536Z,21.00
2023-01-13T05:04:55.943Z,21.00
2023-01-13T05:05:58.291Z,21.10
2023-01-13T05:07:00.658Z,21.10
2023-01-13T05:08:03.116Z,21.10
2023-01-13T05:09:05.426Z,21.20
2023-01-13T05:10:08.315Z,21.20
2023-01-13T05:11:29.089Z,21.20
2023-01-13T05:13:06.823Z,21.10
2023-01-13T05:14:28.113Z,21.20
2023-01-13T05:15:49.410Z,21.20
2023-01-13T05:17:00.639Z,21.20
2023-01-13T05:18:03.502Z,21.20
2023-01-13T05:19:05.932Z,21.00
2023-01-13T05:20:09.726Z,20.80
2023-01-13T05:21:31.960Z,20.60
2023-01-13T05:22:52.952Z,20.50
2023-01-13T05:24:13.991Z,20.50
2023-01-13T05:25:22.516Z,20.60
2023-01-13T05:26:24.849Z,20.70
2023-01-13T05:27:27.754Z,20.70
2023-01-13T05:28:33.767Z,20.80
2023-01-13T05:29:36.090Z,20.80
2023-01-13T05:30:43.546Z,20.90
2023-01-13T05:31:45.921Z,20.90
2023-01-13T05:32:48.670Z,21.00
2023-01-13T05:33:50.944Z,21.00
2023-01-13T05:34:53.544Z,21.00
2023-01-13T05:35:55.868Z,21.00
2023-01-13T05:36:58.158Z,21.00
2023-01-13T05:38:00.499Z,21.10
2023-01-13T05:39:02.839Z,21.00
2023-01-13T05:40:24.630Z,21.10
2023-01-13T05:41:45.863Z,21.00
2023-01-13T05:43:06.929Z,21.10
2023-01-13T05:44:09.495Z,21.10
2023-01-13T05:45:12.427Z,21.10
2023-01-13T05:46:17.268Z,21.10
2023-01-13T05:47:19.669Z,21.10
2023-01-13T05:48:24.304Z,21.10
2023-01-13T05:49:26.629Z,21.10
2023-01-13T05:50:28.981Z,21.10
2023-01-13T05:51:31.396Z,21.20
2023-01-13T05:52:33.708Z,21.10
2023-01-13T05:53:36.544Z,21.10
2023-01-13T05:54:41.064Z,21.20
2023-01-13T05:55:44.821Z,21.10
2023-01-13T05:56:47.308Z,21.20
2023-01-13T05:57:49.588Z,21.20
2023-01-13T05:58:51.861Z,21.20
2023-01-13T05:59:54.175Z,21.20
2023-01-13T06:01:01.382Z,21.20
2023-01-13T06:02:03.756Z,21.30
2023-01-13T06:03:06.343Z,21.40
2023-01-13T06:04:08.807Z,21.40
2023-01-13T06:05:11.133Z,20.90
2023-01-13T06:06:13.414Z,20.70
2023-01-13T06:07:15.869Z,20.70
2023-01-13T06:08:19.019Z,20.80
2023-01-13T06:09:22.625Z,20.90
2023-01-13T06:10:26.095Z,20.90
2023-01-13T06:11:28.395Z,20.90
2023-01-13T06:12:30.710Z,21.00
2023-01-13T06:13:33.081Z,21.00
2023-01-13T06:14:41.134Z,21.00
2023-01-13T06:15:43.586Z,21.00
2023-01-13T06:16:46.382Z,21.00
2023-01-13T06:17:48.786Z,21.10
2023-01-13T06:18:51.210Z,21.10
2023-01-13T06:19:53.716Z,21.10
2023-01-13T06:20:56.209Z,21.20
2023-01-13T06:21:58.764Z,21.20
2023-01-13T06:23:01.323Z,21.10
2023-01-13T06:24:03.811Z,21.10
2023-01-13T06:25:14.471Z,20.90
2023-01-13T06:26:20.619Z,20.90
2023-01-13T06:27:23.356Z,20.90
2023-01-13T06:28:25.829Z,21.00
2023-01-13T06:29:28.144Z,21.10
2023-01-13T06:30:38.540Z,21.20
2023-01-13T06:31:41.125Z,21.20
2023-01-13T06:32:47.751Z,21.40
2023-01-13T06:33:55.635Z,21.40
2023-01-13T06:35:05.720Z,21.50
2023-01-13T06:36:16.522Z,21.50
2023-01-13T06:37:25.215Z,21.50
2023-01-13T06:38:30.167Z,21.50
2023-01-13T06:39:35.733Z,21.60
2023-01-13T06:40:38.183Z,21.50
2023-01-13T06:41:59.299Z,21.40
2023-01-13T06:43:17.500Z,21.40
2023-01-13T06:44:21.013Z,21.30
2023-01-13T06:45:25.303Z,21.30
2023-01-13T06:46:27.613Z,21.30
2023-01-13T06:47:29.940Z,21.30
2023-01-13T06:48:35.228Z,21.20
2023-01-13T06:49:37.690Z,21.20
2023-01-13T06:50:40.175Z,21.30
2023-01-13T06:51:42.509Z,21.20
2023-01-13T06:52:45.135Z,21.30
2023-01-13T06:53:47.412Z,21.20
2023-01-13T06:54:49.767Z,21.20
2023-01-13T06:55:52.073Z,21.20
2023-01-13T06:56:54.388Z,21.20
2023-01-13T06:57:57.992Z,21.20
2023-01-13T06:59:00.349Z,21.30
2023-01-13T07:00:03.154Z,21.20
2023-01-13T07:01:06.014Z,21.20
2023-01-13T07:02:08.539Z,21.20
2023-01-13T07:03:13.405Z,21.20
2023-01-13T07:04:15.944Z,21.30
2023-01-13T07:05:19.632Z,21.20
2023-01-13T07:06:21.999Z,21.20
2023-01-13T07:07:24.510Z,21.40
2023-01-13T07:08:26.897Z,21.50
2023-01-13T07:09:29.256Z,21.50
2023-01-13T07:10:32.975Z,21.50
2023-01-13T07:11:35.318Z,21.40
2023-01-13T07:12:58.910Z,21.30
2023-01-13T07:14:20.218Z,21.40
2023-01-13T07:15:23.653Z,21.30
2023-01-13T07:16:28.188Z,21.30
2023-01-13T07:17:30.909Z,21.30
2023-01-13T07:18:34.927Z,21.30
2023-01-13T07:19:37.713Z,21.20
2023-01-13T07:20:40.349Z,21.20
2023-01-13T07:21:43.801Z,21.20
2023-01-13T07:22:46.358Z,21.20
2023-01-13T07:23:49.049Z,21.20
2023-01-13T07:24:51.568Z,21.20
2023-01-13T07:25:58.789Z,21.20
2023-01-13T07:27:01.566Z,21.20
2023-01-13T07:28:04.180Z,21.20
2023-01-13T07:29:06.962Z,21.20
2023-01-13T07:30:10.388Z,21.20
2023-01-13T07:31:20.825Z,21.30
2023-01-13T07:32:23.555Z,21.40
2023-01-13T07:33:26.503Z,21.40
2023-01-13T07:34:28.915Z,21.40
2023-01-13T07:35:31.219Z,21.40
2023-01-13T07:36:33.564Z,21.40
2023-01-13T07:37:38.153Z,21.40
2023-01-13T07:38:41.198Z,21.40
2023-01-13T07:39:45.146Z,21.50
2023-01-13T07:40:47.456Z,21.60
2023-01-13T07:42:08.389Z,21.60
2023-01-13T07:43:31.042Z,21.60
2023-01-13T07:44:33.713Z,20.70
2023-01-13T07:45:36.391Z,20.10
2023-01-13T07:46:39.469Z,19.70
2023-01-13T07:47:42.150Z,19.60
2023-01-13T07:48:46.480Z,19.30
2023-01-13T07:49:49.588Z,19.30
2023-01-13T07:50:52.145Z,19.60
2023-01-13T07:51:54.689Z,19.80
2023-01-13T07:53:00.264Z,20.00
2023-01-13T07:54:03.201Z,20.20
2023-01-13T07:55:06.285Z,20.40
2023-01-13T07:56:09.466Z,20.60
2023-01-13T07:57:12.079Z,20.60
2023-01-13T07:58:14.499Z,20.60
2023-01-13T07:59:16.849Z,20.70
2023-01-13T08:00:19.720Z,20.80
2023-01-13T08:01:23.060Z,20.90
2023-01-13T08:02:25.574Z,21.10
2023-01-13T08:03:28.093Z,21.10
2023-01-13T08:04:30.428Z,21.20
2023-01-13T08:05:35.308Z,21.20
2023-01-13T08:06:39.779Z,21.20
2023-01-13T08:07:42.155Z,21.30
2023-01-13T08:08:44.470Z,21.00
2023-01-13T08:09:46.783Z,19.70
2023-01-13T08:10:49.163Z,19.00
2023-01-13T08:12:14.360Z,18.30
2023-01-13T08:13:20.111Z,17.90
2023-01-13T08:14:22.638Z,18.40
2023-01-13T08:15:24.956Z,18.80
2023-01-13T08:16:27.378Z,19.10
2023-01-13T08:17:29.839Z,19.40
2023-01-13T08:18:33.041Z,19.60
2023-01-13T08:19:35.704Z,19.90
2023-01-13T08:20:37.992Z,20.00
2023-01-13T08:21:40.304Z,20.10
2023-01-13T08:22:42.641Z,20.20
2023-01-13T08:23:45.916Z,20.30
2023-01-13T08:24:48.239Z,20.30
2023-01-13T08:25:50.553Z,20.40
2023-01-13T08:26:52.834Z,20.40
2023-01-13T08:27:56.122Z,20.50
2023-01-13T08:28:58.425Z,20.50
2023-01-13T08:30:00.721Z,20.60
2023-01-13T08:31:06.148Z,20.60
2023-01-13T08:32:08.537Z,20.70
2023-01-13T08:33:12.853Z,20.70
2023-01-13T08:34:15.150Z,20.70
2023-01-13T08:35:18.457Z,20.70
2023-01-13T08:36:20.774Z,20.80
2023-01-13T08:37:23.171Z,20.80
2023-01-13T08:38:25.635Z,20.80
2023-01-13T08:39:28.130Z,20.80
2023-01-13T08:40:30.520Z,20.90
2023-01-13T08:41:51.457Z,20.90
2023-01-13T08:42:55.843Z,21.00
2023-01-13T08:43:58.175Z,21.00
2023-01-13T08:45:00.572Z,20.90
2023-01-13T08:46:04.849Z,20.70
2023-01-13T08:47:07.469Z,20.90
2023-01-13T08:48:09.743Z,21.10
2023-01-13T08:49:12.051Z,21.20
2023-01-13T08:50:15.046Z,21.30
2023-01-13T08:51:17.355Z,21.30
2023-01-13T08:52:19.774Z,21.40
2023-01-13T08:53:22.076Z,21.40
2023-01-13T08:54:24.407Z,21.40
2023-01-13T08:55:26.880Z,21.40
2023-01-13T08:56:30.106Z,21.40
2023-01-13T08:57:32.527Z,21.40
2023-01-13T08:58:34.865Z,21.40
2023-01-13T08:59:39.016Z,21.40
2023-01-13T09:00:42.196Z,21.50
2023-01-13T09:01:45.351Z,21.40
2023-01-13T09:02:47.771Z,21.40
2023-01-13T09:03:50.149Z,21.40
2023-01-13T09:04:52.846Z,21.40
2023-01-13T09:05:55.099Z,21.40
2023-01-13T09:06:57.810Z,21.50
2023-01-13T09:08:00.149Z,21.40
2023-01-13T09:09:02.554Z,20.80
2023-01-13T09:10:06.699Z,20.60
2023-01-13T09:11:37.094Z,20.30
2023-01-13T09:12:58.263Z,19.80
2023-01-13T09:14:02.472Z,19.50
2023-01-13T09:15:06.412Z,19.30
2023-01-13T09:16:08.719Z,19.10
2023-01-13T09:17:11.327Z,19.00
2023-01-13T09:18:13.797Z,18.90
2023-01-13T09:19:16.335Z,18.80
2023-01-13T09:20:18.886Z,18.90
2023-01-13T09:21:22.316Z,19.10
2023-01-13T09:22:27.073Z,19.10
2023-01-13T09:23:29.400Z,19.20
2023-01-13T09:24:32.033Z,19.20
2023-01-13T09:25:36.612Z,19.20
2023-01-13T09:26:39.035Z,19.30
2023-01-13T09:27:41.360Z,19.20
2023-01-13T09:28:43.606Z,19.20
2023-01-13T09:29:45.902Z,19.40
2023-01-13T09:30:48.273Z,19.30
2023-01-13T09:31:50.695Z,19.00
2023-01-13T09:33:13.029Z,18.70
2023-01-13T09:34:36.259Z,18.60
2023-01-13T09:35:38.535Z,18.60
2023-01-13T09:36:40.964Z,19.10
2023-01-13T09:37:43.516Z,19.50
2023-01-13T09:38:46.407Z,19.90
2023-01-13T09:39:48.880Z,20.10
2023-01-13T09:40:51.211Z,20.30
2023-01-13T09:42:17.323Z,20.40
2023-01-13T09:43:55.192Z,20.60
2023-01-13T09:45:05.422Z,20.80
2023-01-13T09:46:36.595Z,20.90
2023-01-13T09:47:56.564Z,21.00
2023-01-13T09:48:59.829Z,21.10
2023-01-13T09:50:14.044Z,21.20
2023-01-13T09:51:30.498Z,21.20
2023-01-13T09:52:32.956Z,21.30
2023-01-13T09:53:43.401Z,21.30
2023-01-13T09:55:00.481Z,21.40
2023-01-13T09:56:03.360Z,21.40
2023-01-13T09:57:11.417Z,21.40
2023-01-13T09:58:18.592Z,21.40
2023-01-13T09:59:21.571Z,21.40
2023-01-13T10:00:37.526Z,21.40
2023-01-13T10:02:03.005Z,21.20
2023-01-13T10:03:22.563Z,20.60
2023-01-13T10:04:25.484Z,20.20
2023-01-13T10:05:38.156Z,20.10
2023-01-13T10:06:46.063Z,19.90
2023-01-13T10:08:02.162Z,19.70
2023-01-13T10:09:05.667Z,19.60
2023-01-13T10:10:17.951Z,19.80
2023-01-13T10:11:42.797Z,20.20
2023-01-13T10:13:05.983Z,20.50
2023-01-13T10:14:19.645Z,20.70
2023-01-13T10:15:25.863Z,20.90
2023-01-13T10:16:54.053Z,21.00
2023-01-13T10:18:13.647Z,21.10
2023-01-13T10:19:20.423Z,21.20
2023-01-13T10:20:47.585Z,21.20
2023-01-13T10:21:52.956Z,21.30
2023-01-13T10:23:34.538Z,21.30
2023-01-13T10:25:09.637Z,21.40
2023-01-13T10:26:48.438Z,21.50
2023-01-13T10:27:53.397Z,21.50
2023-01-13T10:28:56.989Z,21.50
2023-01-13T10:29:59.426Z,21.60
2023-01-13T10:31:09.324Z,21.60
2023-01-13T10:32:11.657Z,21.60
2023-01-13T10:33:17.371Z,21.60
2023-01-13T10:34:21.188Z,21.60
2023-01-13T10:35:52.457Z,21.60
2023-01-13T10:37:08.403Z,21.60
2023-01-13T10:38:41.681Z,21.60
2023-01-13T10:39:48.280Z,21.60
2023-01-13T10:41:13.788Z,21.60
2023-01-13T10:42:22.758Z,21.50
2023-01-13T10:43:26.210Z,21.50
2023-01-13T10:44:28.695Z,21.50
2023-01-13T10:45:30.973Z,21.40
2023-01-13T10:46:35.425Z,21.40
2023-01-13T10:47:37.836Z,21.40
2023-01-13T10:48:51.113Z,21.50
2023-01-13T10:50:19.581Z,21.50
2023-01-13T10:51:21.911Z,21.50
2023-01-13T10:52:30.953Z,21.60
2023-01-13T10:53:44.245Z,21.50
2023-01-13T10:54:54.653Z,21.50
2023-01-13T10:56:03.865Z,21.50
2023-01-13T10:57:20.758Z,21.50
2023-01-13T10:58:26.215Z,21.50
2023-01-13T10:59:28.726Z,21.60
2023-01-13T11:00:33.242Z,21.50
2023-01-13T11:01:35.733Z,21.50
2023-01-13T11:02:39.692Z,21.50
2023-01-13T11:03:44.343Z,21.50
2023-01-13T11:05:03.132Z,21.60
2023-01-13T11:06:07.314Z,21.60
2023-01-13T11:07:32.663Z,21.60
2023-01-13T11:08:42.955Z,21.50
2023-01-13T11:09:45.392Z,21.50
2023-01-13T11:10:51.395Z,21.60
2023-01-13T11:11:57.360Z,21.50
2023-01-13T11:13:25.532Z,21.50
2023-01-13T11:14:43.397Z,21.60
2023-01-13T11:16:13.143Z,21.60
2023-01-13T11:17:27.882Z,21.50
2023-01-13T11:19:02.395Z,21.50
2023-01-13T11:20:44.720Z,21.50
2023-01-13T11:21:53.823Z,21.40
2023-01-13T11:22:59.674Z,21.50
2023-01-13T11:24:12.360Z,21.50
2023-01-13T11:25:42.733Z,21.50
2023-01-13T11:27:03.984Z,21.40
2023-01-13T11:28:17.675Z,21.50
2023-01-13T11:29:43.425Z,21.50
2023-01-13T11:30:56.972Z,21.50
2023-01-13T11:32:19.987Z,21.60
2023-01-13T11:33:47.716Z,21.60
2023-01-13T11:34:55.839Z,21.60
2023-01-13T11:36:06.859Z,21.60
2023-01-13T11:37:24.916Z,21.50
2023-01-13T11:38:53.852Z,21.50
2023-01-13T11:40:05.715Z,21.50
2023-01-13T11:41:35.920Z,21.50
2023-01-13T11:42:54.486Z,21.50
2023-01-13T11:44:21.401Z,21.60
2023-01-13T11:45:45.396Z,21.60
2023-01-13T11:46:50.246Z,21.60
2023-01-13T11:47:57.232Z,21.70
2023-01-13T11:49:00.780Z,21.60
2023-01-13T11:50:04.521Z,21.70
2023-01-13T11:51:27.996Z,21.70
2023-01-13T11:52:49.778Z,21.70
2023-01-13T11:54:10.813Z,21.80
2023-01-13T11:55:31.383Z,21.80
2023-01-13T11:56:55.129Z,21.80
2023-01-13T11:58:26.537Z,21.80
2023-01-13T11:59:34.969Z,21.80
2023-01-13T12:01:02.765Z,21.70
2023-01-13T12:02:38.219Z,21.70
2023-01-13T12:03:46.175Z,21.70
2023-01-13T12:04:51.264Z,21.70
2023-01-13T12:06:27.008Z,21.40
2023-01-13T12:08:10.919Z,20.50
2023-01-13T12:09:33.179Z,19.70
2023-01-13T12:10:42.298Z,19.40
2023-01-13T12:12:20.570Z,19.90
2023-01-13T12:13:50.065Z,20.30
2023-01-13T12:15:29.846Z,20.70
2023-01-13T12:16:33.309Z,21.00
2023-01-13T12:17:43.710Z,21.00
2023-01-13T12:19:07.476Z,21.10
2023-01-13T12:20:34.398Z,21.30
2023-01-13T12:21:38.972Z,21.40
2023-01-13T12:22:42.935Z,21.40
2023-01-13T12:24:03.951Z,21.50
2023-01-13T12:25:19.579Z,21.50
2023-01-13T12:26:22.755Z,21.50
2023-01-13T12:27:41.601Z,21.60
2023-01-13T12:29:04.709Z,21.60
2023-01-13T12:30:37.155Z,21.60
2023-01-13T12:31:41.282Z,21.70
2023-01-13T12:32:45.175Z,21.70
2023-01-13T12:34:12.950Z,21.70
2023-01-13T12:35:56.223Z,21.80
2023-01-13T12:37:26.559Z,21.80
2023-01-13T12:38:41.748Z,21.80
2023-01-13T12:40:38.671Z,21.80
2023-01-13T12:42:11.006Z,21.80
2023-01-13T12:43:42.705Z,21.80
2023-01-13T12:45:06.561Z,21.90
2023-01-13T12:46:23.518Z,21.90
2023-01-13T12:47:40.040Z,21.90
2023-01-13T12:48:54.889Z,21.90
2023-01-13T12:50:23.581Z,21.90
2023-01-13T12:51:36.449Z,21.90
2023-01-13T12:52:45.395Z,21.90
2023-01-13T12:53:48.102Z,22.00
2023-01-13T12:54:50.530Z,21.90
2023-01-13T12:55:53.086Z,21.90
2023-01-13T12:56:55.471Z,22.00
2023-01-13T12:58:06.755Z,22.00
2023-01-13T12:59:20.577Z,22.00
2023-01-13T13:00:23.509Z,22.00
2023-01-13T13:01:45.633Z,22.00
2023-01-13T13:03:11.028Z,22.00
2023-01-13T13:04:18.501Z,22.00
2023-01-13T13:05:23.605Z,22.00
2023-01-13T13:06:30.920Z,21.90
2023-01-13T13:07:45.284Z,21.90
2023-01-13T13:09:03.846Z,21.40
2023-01-13T13:10:42.532Z,20.10
2023-01-13T13:12:15.716Z,19.30
2023-01-13T13:13:49.111Z,18.50
2023-01-13T13:14:51.430Z,18.60
2023-01-13T13:16:37.378Z,19.20
2023-01-13T13:17:40.447Z,19.70
2023-01-13T13:18:42.719Z,20.20
2023-01-13T13:19:48.408Z,20.40
2023-01-13T13:20:54.171Z,20.60
2023-01-13T13:22:19.306Z,20.80
2023-01-13T13:23:35.396Z,21.00
2023-01-13T13:24:51.075Z,21.10
2023-01-13T13:26:07.217Z,21.20
2023-01-13T13:27:25.093Z,21.30
2023-01-13T13:28:33.184Z,21.30
2023-01-13T13:29:55.362Z,21.40
2023-01-13T13:31:19.702Z,21.40
2023-01-13T13:32:50.499Z,21.40
2023-01-13T13:34:11.677Z,21.40
2023-01-13T13:36:00.138Z,21.40
2023-01-13T13:37:26.259Z,21.40
2023-01-13T13:39:21.152Z,21.40
2023-01-13T13:40:43.631Z,21.30
2023-01-13T13:42:06.743Z,21.40
2023-01-13T13:43:34.149Z,21.40
2023-01-13T13:44:58.565Z,21.40
2023-01-13T13:46:19.795Z,21.40
2023-01-13T13:47:22.244Z,21.40
2023-01-13T13:48:30.969Z,21.40
2023-01-13T13:49:41.384Z,21.40
2023-01-13T13:50:49.430Z,21.40
2023-01-13T13:52:06.131Z,21.40
2023-01-13T13:53:09.252Z,21.50
2023-01-13T13:54:19.784Z,21.40
2023-01-13T13:55:26.321Z,21.40
2023-01-13T13:56:40.587Z,21.40
2023-01-13T13:57:49.599Z,21.40
2023-01-13T13:58:53.106Z,21.50
2023-01-13T13:59:58.913Z,21.60
2023-01-13T14:01:02.041Z,21.60
2023-01-13T14:02:15.677Z,21.50
2023-01-13T14:03:32.045Z,21.50
2023-01-13T14:04:36.916Z,21.60
2023-01-13T14:05:52.080Z,21.60
2023-01-13T14:06:59.629Z,21.70
2023-01-13T14:08:09.516Z,21.40
2023-01-13T14:09:18.091Z,21.10
2023-01-13T14:10:28.552Z,20.90
2023-01-13T14:11:33.120Z,20.80
2023-01-13T14:12:38.113Z,20.70
2023-01-13T14:13:40.860Z,20.60
2023-01-13T14:14:44.003Z,20.90
2023-01-13T14:15:49.181Z,21.10
2023-01-13T14:16:51.798Z,21.30
2023-01-13T14:17:54.716Z,21.30
2023-01-13T14:18:57.262Z,21.40
2023-01-13T14:20:04.822Z,21.40
2023-01-13T14:21:22.388Z,21.50
2023-01-13T14:22:28.083Z,21.50
2023-01-13T14:23:33.632Z,21.50
2023-01-13T14:24:46.653Z,21.60
2023-01-13T14:25:51.005Z,21.50
2023-01-13T14:27:08.090Z,21.50
2023-01-13T14:28:13.219Z,21.60
2023-01-13T14:29:23.273Z,21.60
2023-01-13T14:30:27.961Z,21.60
2023-01-13T14:31:31.379Z,21.60
2023-01-13T14:32:36.589Z,21.70
2023-01-13T14:33:48.692Z,21.70
2023-01-13T14:34:52.647Z,21.80
2023-01-13T14:36:14.826Z,21.80
2023-01-13T14:37:31.847Z,21.80
2023-01-13T14:38:34.293Z,21.90
2023-01-13T14:39:41.375Z,21.90
2023-01-13T14:40:46.233Z,21.90
2023-01-13T14:41:50.560Z,22.00
2023-01-13T14:43:00.577Z,22.00
2023-01-13T14:44:26.956Z,22.00
2023-01-13T14:45:30.423Z,22.00
2023-01-13T14:46:40.879Z,21.90
2023-01-13T14:47:54.044Z,22.00
2023-01-13T14:49:02.779Z,21.90
2023-01-13T14:50:06.886Z,21.90
2023-01-13T14:51:12.988Z,21.90
2023-01-13T14:52:20.528Z,21.90
2023-01-13T14:53:38.611Z,21.90
2023-01-13T14:54:48.709Z,21.90
2023-01-13T14:55:51.103Z,21.80